createdAt,value
2023-11-22T00:01:54.708Z,1.61
2023-11-22T00:05:56.344Z,1.64
2023-11-22T00:09:57.874Z,1.63
2023-11-22T00:13:59.563Z,1.59
2023-11-22T00:18:04.893Z,1.56
2023-11-22T00:22:14.528Z,1.53
2023-11-22T00:26:16.582Z,1.60
2023-11-22T00:30:18.240Z,1.55
2023-11-22T00:34:21.430Z,1.54
2023-11-22T00:38:24.209Z,1.52
2023-11-22T00:42:25.855Z,1.48
2023-11-22T00:46:27.457Z,1.52
2023-11-22T00:50:29.015Z,1.53
2023-11-22T00:54:30.760Z,1.36
2023-11-22T00:58:32.293Z,1.33
2023-11-22T01:02:34.058Z,1.30
2023-11-22T01:06:36.301Z,1.29
2023-11-22T01:10:37.927Z,1.29
2023-11-22T01:14:40.188Z,1.29
2023-11-22T01:18:44.370Z,1.26
2023-11-22T01:22:47.420Z,1.21
2023-11-22T01:26:49.036Z,1.18
2023-11-22T01:30:50.570Z,1.26
2023-11-22T01:34:52.102Z,1.16
2023-11-22T01:38:53.624Z,1.12
2023-11-22T01:42:55.742Z,1.13
2023-11-22T01:46:57.704Z,1.16
2023-11-22T01:50:59.881Z,1.02
2023-11-22T01:55:05.780Z,1.09
2023-11-22T01:59:07.441Z,0.98
2023-11-22T02:03:09.100Z,0.85
2023-11-22T02:07:10.877Z,0.70
2023-11-22T02:11:12.428Z,0.63
2023-11-22T02:15:14.176Z,0.54
2023-11-22T02:19:17.638Z,0.50
2023-11-22T02:23:19.561Z,0.42
2023-11-22T02:27:21.089Z,0.29
2023-11-22T02:31:23.846Z,0.22
2023-11-22T02:35:25.398Z,0.11
2023-11-22T02:39:42.076Z,0.05
2023-11-22T02:43:43.650Z,0.04
2023-11-22T02:47:47.602Z,0.02
2023-11-22T02:51:49.194Z,0.02
2023-11-22T02:55:50.777Z,-0.07
2023-11-22T02:59:52.285Z,-0.10
2023-11-22T03:03:53.915Z,-0.18
2023-11-22T03:07:55.485Z,-0.19
2023-11-22T03:11:57.200Z,-0.25
2023-11-22T03:15:58.752Z,-0.36
2023-11-22T03:20:01.649Z,-0.43
2023-11-22T03:24:04.918Z,-0.44
2023-11-22T03:28:07.398Z,-0.48
2023-11-22T03:32:09.227Z,-0.48
2023-11-22T03:36:12.209Z,-0.48
2023-11-22T03:40:14.946Z,-0.53
2023-11-22T03:44:16.615Z,-0.52
2023-11-22T03:48:18.292Z,-0.49
2023-11-22T03:52:19.969Z,-0.41
2023-11-22T03:56:22.216Z,-0.37
2023-11-22T04:00:25.226Z,-0.47
2023-11-22T04:04:26.761Z,-0.43
2023-11-22T04:08:28.343Z,-0.48
2023-11-22T04:12:29.896Z,-0.50
2023-11-22T04:16:31.577Z,-0.41
2023-11-22T04:20:33.654Z,-0.44
2023-11-22T04:24:35.258Z,-0.39
2023-11-22T04:28:36.785Z,-0.41
2023-11-22T04:32:38.621Z,-0.37
2023-11-22T04:36:40.338Z,-0.28
2023-11-22T04:40:43.732Z,-0.38
2023-11-22T04:44:45.337Z,-0.34
2023-11-22T04:48:48.596Z,-0.34
2023-11-22T04:52:50.152Z,-0.41
2023-11-22T04:56:51.688Z,-0.44
2023-11-22T05:00:53.223Z,-0.41
2023-11-22T05:04:54.929Z,-0.34
2023-11-22T05:08:56.481Z,-0.47
2023-11-22T05:13:00.773Z,-0.44
2023-11-22T05:17:02.427Z,-0.46
2023-11-22T05:21:07.282Z,-0.45
2023-11-22T05:25:09.102Z,-0.50
2023-11-22T05:29:11.007Z,-0.59
2023-11-22T05:33:12.782Z,-0.62
2023-11-22T05:37:14.374Z,-0.63
2023-11-22T05:41:16.815Z,-0.62
2023-11-22T05:45:18.392Z,-0.55
2023-11-22T05:49:19.930Z,-0.51
2023-11-22T05:53:22.346Z,-0.48
2023-11-22T05:57:23.895Z,-0.48
2023-11-22T06:01:25.562Z,-0.38
2023-11-22T06:05:27.192Z,-0.39
2023-11-22T06:09:28.849Z,-0.37
2023-11-22T06:13:30.385Z,-0.45
2023-11-22T06:17:31.992Z,-0.28
2023-11-22T06:21:33.642Z,-0.46
2023-11-22T06:25:37.129Z,-0.49
2023-11-22T06:29:38.706Z,-0.41
2023-11-22T06:33:40.644Z,-0.34
2023-11-22T06:37:42.493Z,-0.29
2023-11-22T06:41:44.160Z,-0.39
2023-11-22T06:45:46.211Z,-0.28
2023-11-22T06:49:47.815Z,-0.32
2023-11-22T06:53:49.385Z,-0.37
2023-11-22T06:57:51.553Z,-0.45
2023-11-22T07:01:53.110Z,-0.43
2023-11-22T07:05:55.126Z,-0.30
2023-11-22T07:10:00.831Z,-0.46
2023-11-22T07:14:05.014Z,-0.57
2023-11-22T07:18:06.692Z,-0.64
2023-11-22T07:22:17.317Z,-0.56
2023-11-22T07:26:19.031Z,-0.57
2023-11-22T07:30:21.246Z,-0.51
2023-11-22T07:34:23.069Z,-0.46
2023-11-22T07:38:24.856Z,-0.53
2023-11-22T07:42:26.393Z,-0.56
2023-11-22T07:46:28.873Z,-0.52
2023-11-22T07:50:30.597Z,-0.56
2023-11-22T07:54:32.306Z,-0.56
2023-11-22T07:58:35.855Z,-0.56
2023-11-22T08:02:39.916Z,-0.44
2023-11-22T08:06:41.836Z,-0.41
2023-11-22T08:10:44.925Z,-0.43
2023-11-22T08:14:47.021Z,-0.47
2023-11-22T08:18:49.126Z,-0.42
2023-11-22T08:22:52.073Z,-0.41
2023-11-22T08:26:54.017Z,-0.49
2023-11-22T08:30:55.848Z,-0.41
2023-11-22T08:34:58.082Z,-0.29
2023-11-22T08:39:01.647Z,-0.35
2023-11-22T08:43:04.230Z,-0.40
2023-11-22T08:47:05.838Z,-0.30
2023-11-22T08:51:09.120Z,-0.36
2023-11-22T08:55:10.907Z,-0.50
2023-11-22T08:59:12.896Z,-0.48
2023-11-22T09:03:14.648Z,-0.48
2023-11-22T09:07:17.438Z,-0.63
2023-11-22T09:11:21.231Z,-0.71
2023-11-22T09:15:28.343Z,-0.74
2023-11-22T09:19:30.083Z,-0.62
2023-11-22T09:23:31.722Z,-0.55
2023-11-22T09:27:33.284Z,-0.64
2023-11-22T09:31:36.529Z,-0.52
2023-11-22T09:35:39.342Z,-0.61
2023-11-22T09:39:41.276Z,-0.62
2023-11-22T09:43:43.419Z,-0.51
2023-11-22T09:47:46.447Z,-0.37
2023-11-22T09:51:50.030Z,-0.43
2023-11-22T09:55:51.740Z,-0.48
2023-11-22T09:59:56.629Z,-0.45
2023-11-22T10:03:59.930Z,-0.42
2023-11-22T10:08:02.143Z,-0.35
2023-11-22T10:12:06.713Z,-0.18
2023-11-22T10:16:13.075Z,-0.15
2023-11-22T10:20:14.984Z,-0.23
2023-11-22T10:24:22.177Z,-0.23
2023-11-22T10:28:28.963Z,-0.25
2023-11-22T10:32:30.804Z,-0.27
2023-11-22T10:36:32.393Z,-0.13
2023-11-22T10:40:34.046Z,-0.14
2023-11-22T10:44:35.985Z,-0.11
2023-11-22T10:48:38.131Z,-0.10
2023-11-22T10:52:42.667Z,-0.03
2023-11-22T10:56:52.646Z,0.05
2023-11-22T11:00:55.072Z,-0.03
2023-11-22T11:05:04.564Z,-0.04
2023-11-22T11:09:07.787Z,-0.06
2023-11-22T11:13:14.295Z,-0.06
2023-11-22T11:17:17.432Z,-0.14
2023-11-22T11:21:20.203Z,-0.10
2023-11-22T11:25:22.453Z,-0.06
2023-11-22T11:29:41.716Z,-0.05
2023-11-22T11:33:56.394Z,0.12
2023-11-22T11:38:02.401Z,0.14
2023-11-22T11:42:14.237Z,0.02
2023-11-22T11:46:19.032Z,-0.01
2023-11-22T11:50:23.888Z,0.09
2023-11-22T11:54:25.460Z,0.01
2023-11-22T11:58:27.035Z,0.02
2023-11-22T12:02:28.608Z,0.14
2023-11-22T12:06:32.152Z,0.25
2023-11-22T12:10:33.779Z,0.29
2023-11-22T12:14:35.644Z,0.40
2023-11-22T12:18:42.196Z,0.29
2023-11-22T12:22:44.666Z,0.18
2023-11-22T12:26:48.092Z,0.20
2023-11-22T12:30:49.751Z,0.29
2023-11-22T12:34:54.043Z,0.42
2023-11-22T12:38:59.696Z,0.39
2023-11-22T12:43:02.311Z,0.37
2023-11-22T12:47:12.365Z,0.32
2023-11-22T12:51:18.504Z,0.14
2023-11-22T12:55:20.061Z,0.09
2023-11-22T12:59:22.082Z,0.09
2023-11-22T13:03:23.890Z,0.11
2023-11-22T13:07:26.080Z,0.18
2023-11-22T13:11:29.163Z,0.24
2023-11-22T13:15:31.218Z,0.36
2023-11-22T13:19:33.123Z,0.27
2023-11-22T13:23:34.761Z,0.29
2023-11-22T13:27:37.513Z,0.23
2023-11-22T13:31:39.118Z,0.30
2023-11-22T13:35:41.796Z,0.42
2023-11-22T13:39:43.416Z,0.50
2023-11-22T13:43:44.988Z,0.50
2023-11-22T13:47:58.296Z,0.50
2023-11-22T13:52:00.471Z,0.36
2023-11-22T13:56:02.971Z,0.37
2023-11-22T14:00:11.091Z,0.41
2023-11-22T14:04:13.074Z,0.39
2023-11-22T14:08:17.302Z,0.35
2023-11-22T14:12:19.686Z,0.34
2023-11-22T14:16:21.505Z,0.48
2023-11-22T14:20:23.328Z,0.53
2023-11-22T14:24:24.941Z,0.60
2023-11-22T14:28:26.465Z,0.57
2023-11-22T14:32:28.126Z,0.65
2023-11-22T14:36:30.875Z,0.64
2023-11-22T14:40:33.751Z,0.60
2023-11-22T14:44:36.280Z,0.55
2023-11-22T14:48:38.893Z,0.51
2023-11-22T14:52:41.325Z,0.52
2023-11-22T14:56:42.907Z,0.46
2023-11-22T15:00:44.487Z,0.39
2023-11-22T15:04:46.871Z,0.33
2023-11-22T15:08:51.970Z,0.28
2023-11-22T15:12:55.168Z,0.27
2023-11-22T15:16:56.902Z,0.18
2023-11-22T15:20:58.902Z,0.17
2023-11-22T15:25:01.089Z,0.24
2023-11-22T15:29:02.727Z,0.17
2023-11-22T15:33:06.241Z,0.14
2023-11-22T15:37:07.955Z,0.14
2023-11-22T15:41:16.171Z,0.09
2023-11-22T15:45:18.695Z,0.02
2023-11-22T15:49:20.818Z,0.08
2023-11-22T15:53:22.731Z,0.06
2023-11-22T15:57:24.262Z,0.08
2023-11-22T16:01:29.592Z,-0.03
2023-11-22T16:05:31.161Z,-0.18
2023-11-22T16:09:33.906Z,-0.20
2023-11-22T16:13:35.422Z,-0.21
2023-11-22T16:17:37.302Z,-0.17
2023-11-22T16:21:40.636Z,-0.20
2023-11-22T16:25:51.001Z,-0.19
2023-11-22T16:29:52.817Z,-0.20
2023-11-22T16:33:54.917Z,-0.09
2023-11-22T16:37:57.143Z,-0.19
2023-11-22T16:41:58.822Z,-0.12
2023-11-22T16:46:00.705Z,-0.19
2023-11-22T16:50:04.488Z,-0.14
2023-11-22T16:54:08.593Z,-0.23
2023-11-22T16:58:10.161Z,-0.22
2023-11-22T17:02:18.466Z,-0.24
2023-11-22T17:06:20.036Z,-0.24
2023-11-22T17:10:44.683Z,-0.20
2023-11-22T17:14:44.624Z,-0.19
2023-11-22T17:18:46.314Z,-0.21
2023-11-22T17:22:48.178Z,-0.22
2023-11-22T17:26:50.420Z,-0.21
2023-11-22T17:30:54.118Z,-0.21
2023-11-22T17:34:55.840Z,-0.22
2023-11-22T17:38:57.967Z,-0.34
2023-11-22T17:43:02.260Z,-0.31
2023-11-22T17:47:04.348Z,-0.32
2023-11-22T17:51:06.150Z,-0.34
2023-11-22T17:55:08.036Z,-0.33
2023-11-22T17:59:09.570Z,-0.32
2023-11-22T18:03:11.781Z,-0.26
2023-11-22T18:07:15.602Z,-0.22
2023-11-22T18:11:17.605Z,-0.27
2023-11-22T18:15:20.433Z,-0.29
2023-11-22T18:19:22.076Z,-0.26
2023-11-22T18:23:28.862Z,-0.25
2023-11-22T18:27:30.472Z,-0.28
2023-11-22T18:31:32.000Z,-0.30
2023-11-22T18:35:33.546Z,-0.29
2023-11-22T18:39:35.424Z,-0.34
2023-11-22T18:43:37.141Z,-0.33
2023-11-22T18:47:39.227Z,-0.33
2023-11-22T18:51:40.815Z,-0.29
2023-11-22T18:55:43.117Z,-0.26
2023-11-22T18:59:47.266Z,-0.28
2023-11-22T19:03:48.870Z,-0.26
2023-11-22T19:07:52.517Z,-0.27
2023-11-22T19:11:54.574Z,-0.30
2023-11-22T19:15:56.284Z,-0.33
2023-11-22T19:19:58.770Z,-0.33
2023-11-22T19:24:02.423Z,-0.29
2023-11-22T19:28:10.210Z,-0.26
2023-11-22T19:32:11.761Z,-0.24
2023-11-22T19:36:24.197Z,-0.29
2023-11-22T19:40:26.077Z,-0.31
2023-11-22T19:44:27.584Z,-0.29
2023-11-22T19:48:29.229Z,-0.27
2023-11-22T19:52:30.805Z,-0.34
2023-11-22T19:56:32.382Z,-0.38
2023-11-22T20:00:34.665Z,-0.37
2023-11-22T20:04:36.341Z,-0.36
2023-11-22T20:08:37.964Z,-0.40
2023-11-22T20:12:39.581Z,-0.40
2023-11-22T20:16:41.231Z,-0.38
2023-11-22T20:20:43.112Z,-0.42
2023-11-22T20:24:44.790Z,-0.39
2023-11-22T20:28:47.006Z,-0.39
2023-11-22T20:32:48.673Z,-0.39
2023-11-22T20:36:51.577Z,-0.37
2023-11-22T20:40:53.623Z,-0.38
2023-11-22T20:44:55.310Z,-0.38
2023-11-22T20:48:56.939Z,-0.38
2023-11-22T20:52:59.673Z,-0.32
2023-11-22T20:57:02.757Z,-0.37
2023-11-22T21:01:04.967Z,-0.42
2023-11-22T21:05:09.057Z,-0.43
2023-11-22T21:09:11.997Z,-0.48
2023-11-22T21:13:13.757Z,-0.48
2023-11-22T21:17:15.701Z,-0.47
2023-11-22T21:21:18.638Z,-0.51
2023-11-22T21:25:20.486Z,-0.47
2023-11-22T21:29:22.093Z,-0.49
2023-11-22T21:33:23.709Z,-0.44
2023-11-22T21:37:25.281Z,-0.44
2023-11-22T21:41:26.878Z,-0.39
2023-11-22T21:45:28.423Z,-0.42
2023-11-22T21:49:29.963Z,-0.42
2023-11-22T21:53:31.521Z,-0.44
2023-11-22T21:57:33.175Z,-0.44
2023-11-22T22:01:34.729Z,-0.43
2023-11-22T22:05:36.444Z,-0.47
2023-11-22T22:09:40.748Z,-0.46
2023-11-22T22:13:42.577Z,-0.46
2023-11-22T22:17:44.154Z,-0.46
2023-11-22T22:21:46.236Z,-0.45
2023-11-22T22:25:47.744Z,-0.47
2023-11-22T22:29:49.318Z,-0.41
2023-11-22T22:33:51.278Z,-0.39
2023-11-22T22:37:53.118Z,-0.34
2023-11-22T22:41:55.144Z,-0.42
2023-11-22T22:45:56.809Z,-0.41
2023-11-22T22:49:58.398Z,-0.40
2023-11-22T22:54:00.410Z,-0.44
2023-11-22T22:58:02.055Z,-0.42
2023-11-22T23:02:03.813Z,-0.44
2023-11-22T23:06:06.496Z,-0.42
2023-11-22T23:10:10.334Z,-0.48
2023-11-22T23:14:11.858Z,-0.41
2023-11-22T23:18:13.446Z,-0.45
2023-11-22T23:22:15.053Z,-0.50
2023-11-22T23:26:16.578Z,-0.48
2023-11-22T23:30:18.219Z,-0.57
2023-11-22T23:34:19.883Z,-0.62
2023-11-22T23:38:22.268Z,-0.60
2023-11-22T23:42:24.521Z,-0.57
2023-11-22T23:46:26.086Z,-0.61
2023-11-22T23:50:27.638Z,-0.43
2023-11-22T23:54:29.306Z,-0.56
2023-11-22T23:58:31.473Z,-0.63
